createdAt,value
2019-05-12T00:02:30.253Z,12.84
2019-05-12T00:05:02.335Z,12.87
2019-05-12T00:07:34.740Z,12.91
2019-05-12T00:10:08.594Z,12.93
2019-05-12T00:12:40.722Z,12.94
2019-05-12T00:15:14.304Z,12.95
2019-05-12T00:17:48.112Z,12.93
2019-05-12T00:20:19.838Z,12.94
2019-05-12T00:22:55.092Z,12.91
2019-05-12T00:25:28.328Z,12.94
2019-05-12T00:28:00.774Z,12.93
2019-05-12T00:30:48.866Z,12.91
2019-05-12T00:33:20.810Z,12.91
2019-05-12T00:35:52.664Z,12.91
2019-05-12T00:38:24.728Z,12.93
2019-05-12T00:40:58.352Z,12.95
2019-05-12T00:43:30.073Z,12.93
2019-05-12T00:46:01.981Z,12.92
2019-05-12T00:48:33.906Z,12.92
2019-05-12T00:51:07.768Z,12.91
2019-05-12T00:53:43.340Z,12.89
2019-05-12T00:56:13.445Z,12.85
2019-05-12T00:58:45.407Z,12.84
2019-05-12T01:01:18.407Z,12.82
2019-05-12T01:03:50.293Z,12.82
2019-05-12T01:06:22.094Z,12.83
2019-05-12T01:08:54.219Z,12.84
2019-05-12T01:11:28.333Z,12.88
2019-05-12T01:13:59.690Z,12.87
2019-05-12T01:16:31.456Z,12.90
2019-05-12T01:19:03.614Z,12.91
2019-05-12T01:21:37.596Z,12.93
2019-05-12T01:24:09.228Z,12.93
2019-05-12T01:26:41.121Z,12.94
2019-05-12T01:29:12.979Z,12.94
2019-05-12T01:31:52.180Z,12.91
2019-05-12T01:34:24.199Z,12.91
2019-05-12T01:36:58.568Z,12.94
2019-05-12T01:39:30.988Z,12.94
2019-05-12T01:42:02.876Z,12.94
2019-05-12T01:44:34.832Z,12.97
2019-05-12T01:47:08.368Z,13.01
2019-05-12T01:49:40.424Z,13.01
2019-05-12T01:52:13.366Z,12.98
2019-05-12T01:54:47.814Z,13.00
2019-05-12T01:57:19.325Z,12.99
2019-05-12T01:59:51.316Z,12.99
2019-05-12T02:02:23.143Z,13.01
2019-05-12T02:05:08.867Z,13.00
2019-05-12T02:07:48.027Z,13.00
2019-05-12T02:10:21.596Z,13.00
2019-05-12T02:12:53.381Z,12.98
2019-05-12T02:15:27.659Z,12.99
2019-05-12T02:17:59.229Z,12.99
2019-05-12T02:20:31.405Z,12.99
2019-05-12T02:23:03.213Z,12.99
2019-05-12T02:25:37.853Z,12.99
2019-05-12T02:28:09.593Z,12.99
2019-05-12T02:30:42.229Z,13.00
2019-05-12T02:33:15.923Z,12.98
2019-05-12T02:35:47.684Z,12.97
2019-05-12T02:38:19.458Z,12.95
2019-05-12T02:40:54.753Z,12.95
2019-05-12T02:43:25.487Z,12.92
2019-05-12T02:45:57.432Z,12.91
2019-05-12T02:48:29.285Z,12.90
2019-05-12T02:51:01.315Z,12.87
2019-05-12T02:53:35.131Z,12.84
2019-05-12T02:56:08.216Z,12.83
2019-05-12T02:58:45.179Z,12.82
2019-05-12T03:01:15.815Z,12.81
2019-05-12T03:03:49.982Z,12.80
2019-05-12T03:06:25.075Z,12.78
2019-05-12T03:09:04.822Z,12.79
2019-05-12T03:11:37.495Z,12.77
2019-05-12T03:14:09.334Z,12.77
2019-05-12T03:16:41.217Z,12.75
2019-05-12T03:19:15.025Z,12.73
2019-05-12T03:21:46.630Z,12.74
2019-05-12T03:24:19.351Z,12.73
2019-05-12T03:26:55.070Z,12.73
2019-05-12T03:29:25.365Z,12.73
2019-05-12T03:31:57.657Z,12.76
2019-05-12T03:34:30.038Z,12.79
2019-05-12T03:37:07.831Z,12.81
2019-05-12T03:39:35.847Z,12.84
2019-05-12T03:42:08.339Z,12.86
2019-05-12T03:44:40.135Z,12.89
2019-05-12T03:47:14.459Z,12.88
2019-05-12T03:49:45.597Z,12.94
2019-05-12T03:52:17.626Z,12.97
2019-05-12T03:54:49.619Z,13.00
2019-05-12T03:57:25.094Z,13.01
2019-05-12T03:59:56.499Z,13.01
2019-05-12T04:02:28.543Z,13.04
2019-05-12T04:05:00.316Z,13.09
2019-05-12T04:07:34.433Z,13.13
2019-05-12T04:10:05.997Z,13.17
2019-05-12T04:12:38.039Z,13.17
2019-05-12T04:15:10.179Z,13.22
2019-05-12T04:17:45.500Z,13.25
2019-05-12T04:20:18.554Z,13.20
2019-05-12T04:22:50.703Z,13.25
2019-05-12T04:25:24.947Z,13.30
2019-05-12T04:27:56.117Z,13.32
2019-05-12T04:30:27.887Z,13.31
2019-05-12T04:32:59.778Z,13.32
2019-05-12T04:35:34.693Z,13.40
2019-05-12T04:38:05.731Z,13.32
2019-05-12T04:40:37.658Z,13.40
2019-05-12T04:43:09.891Z,13.40
2019-05-12T04:45:44.789Z,13.47
2019-05-12T04:48:20.927Z,13.49
2019-05-12T04:50:49.204Z,13.61
2019-05-12T04:53:24.861Z,13.72
2019-05-12T04:56:07.520Z,13.73
2019-05-12T04:58:28.849Z,13.89
2019-05-12T05:01:00.624Z,13.97
2019-05-12T05:17:18.502Z,15.12
2019-05-12T05:19:50.649Z,14.88
2019-05-12T05:22:24.248Z,14.76
2019-05-12T05:24:56.451Z,14.74
2019-05-12T05:27:28.502Z,14.81
2019-05-12T05:30:00.266Z,14.82
2019-05-12T05:32:33.884Z,14.69
2019-05-12T05:35:07.757Z,14.87
2019-05-12T05:37:43.577Z,14.95
2019-05-12T05:40:14.281Z,14.88
2019-05-12T05:42:46.633Z,15.05
2019-05-12T05:45:23.415Z,15.13
2019-05-12T05:47:54.276Z,15.10
2019-05-12T05:50:29.472Z,15.16
2019-05-12T05:52:59.502Z,15.23
2019-05-12T05:55:33.917Z,15.20
2019-05-12T05:58:08.588Z,15.32
2019-05-12T06:00:39.509Z,15.34
2019-05-12T06:03:14.975Z,15.41
2019-05-12T06:05:45.499Z,15.47
2019-05-12T06:08:20.852Z,15.50
2019-05-12T06:10:53.801Z,15.53
2019-05-12T06:13:29.932Z,15.52
2019-05-12T06:15:58.692Z,15.58
2019-05-12T06:18:30.584Z,15.63
2019-05-12T06:21:03.454Z,15.55
2019-05-12T06:23:39.192Z,15.65
2019-05-12T06:26:09.880Z,15.68
2019-05-12T06:28:43.789Z,15.80
2019-05-12T06:31:18.953Z,15.91
2019-05-12T06:33:49.033Z,15.96
2019-05-12T06:36:24.876Z,16.04
2019-05-12T06:38:54.927Z,16.10
2019-05-12T06:41:26.728Z,16.04
2019-05-12T06:43:58.749Z,16.19
2019-05-12T06:46:30.624Z,16.33
2019-05-12T06:49:10.236Z,16.23
2019-05-12T06:51:36.249Z,16.37
2019-05-12T06:54:11.971Z,16.44
2019-05-12T06:56:43.512Z,16.48
2019-05-12T06:59:15.736Z,16.71
2019-05-12T07:01:49.882Z,16.80
2019-05-12T07:04:23.958Z,16.99
2019-05-12T07:07:00.230Z,17.14
2019-05-12T07:09:32.053Z,17.32
2019-05-12T07:12:06.661Z,17.47
2019-05-12T07:14:36.057Z,17.68
2019-05-12T07:17:26.840Z,17.81
2019-05-12T07:19:58.830Z,17.86
2019-05-12T07:22:31.301Z,17.81
2019-05-12T07:25:07.872Z,17.97
2019-05-12T07:27:39.687Z,18.00
2019-05-12T07:30:13.660Z,18.13
2019-05-12T07:32:46.154Z,18.14
2019-05-12T07:35:18.058Z,18.12
2019-05-12T07:37:53.941Z,18.32
2019-05-12T07:40:30.108Z,18.08
2019-05-12T07:43:04.050Z,18.10
2019-05-12T07:45:35.670Z,18.25
2019-05-12T07:48:10.169Z,18.24
2019-05-12T07:50:43.206Z,18.46
2019-05-12T07:53:14.662Z,18.71
2019-05-12T07:55:49.286Z,18.92
2019-05-12T07:58:20.284Z,19.03
2019-05-12T08:00:53.916Z,18.78
2019-05-12T08:03:25.942Z,19.02
2019-05-12T08:06:01.772Z,19.20
2019-05-12T08:08:31.394Z,19.38
2019-05-12T08:11:04.624Z,19.41
2019-05-12T08:13:40.798Z,19.43
2019-05-12T08:16:10.457Z,19.22
2019-05-12T08:18:44.439Z,19.28
2019-05-12T08:21:16.167Z,19.48
2019-05-12T08:23:48.003Z,19.56
2019-05-12T08:26:20.360Z,19.58
2019-05-12T08:28:53.490Z,19.70
2019-05-12T08:31:33.134Z,19.70
2019-05-12T08:33:59.593Z,19.79
2019-05-12T08:36:33.457Z,19.84
2019-05-12T08:39:11.954Z,20.04
2019-05-12T08:41:41.119Z,19.89
2019-05-12T08:44:13.554Z,20.05
2019-05-12T08:46:51.979Z,20.20
2019-05-12T08:49:19.373Z,20.24
2019-05-12T08:51:57.873Z,20.46
2019-05-12T08:54:24.947Z,20.52
2019-05-12T08:57:00.984Z,20.42
2019-05-12T08:59:30.700Z,20.51
2019-05-12T09:02:07.303Z,20.84
2019-05-12T09:04:36.398Z,20.90
2019-05-12T09:07:08.987Z,21.15
2019-05-12T09:09:40.786Z,21.22
2019-05-12T09:12:13.981Z,21.22
2019-05-12T09:14:46.529Z,21.36
2019-05-12T09:17:18.449Z,21.54
2019-05-12T09:19:54.983Z,21.77
2019-05-12T09:22:24.364Z,21.91
2019-05-12T09:24:58.387Z,22.07
2019-05-12T09:27:30.175Z,22.16
2019-05-12T09:30:05.428Z,21.94
2019-05-12T09:32:39.125Z,22.07
2019-05-12T09:35:09.378Z,22.40
2019-05-12T09:37:41.428Z,22.63
2019-05-12T09:40:14.891Z,22.84
2019-05-12T09:42:47.285Z,22.98
2019-05-12T09:45:19.137Z,22.95
2019-05-12T09:47:50.999Z,22.95
2019-05-12T09:50:23.355Z,22.64
2019-05-12T09:53:00.660Z,22.65
2019-05-12T09:55:29.106Z,22.49
2019-05-12T09:58:03.777Z,22.79
2019-05-12T10:00:37.489Z,23.00
2019-05-12T10:03:08.902Z,23.11
2019-05-12T10:05:41.512Z,23.30
2019-05-12T10:08:14.219Z,23.19
2019-05-12T10:10:47.169Z,22.89
2019-05-12T10:13:25.098Z,22.90
2019-05-12T10:15:53.640Z,23.27
2019-05-12T10:18:25.665Z,23.42
2019-05-12T10:20:57.568Z,23.42
2019-05-12T10:23:29.607Z,23.58
2019-05-12T10:26:07.484Z,23.31
2019-05-12T10:28:35.802Z,23.29
2019-05-12T10:31:07.557Z,23.81
2019-05-12T10:33:39.517Z,24.05
2019-05-12T10:36:11.303Z,24.13
2019-05-12T10:38:43.472Z,24.09
2019-05-12T10:41:15.626Z,24.09
2019-05-12T10:43:48.397Z,24.14
2019-05-12T10:46:26.389Z,24.14
2019-05-12T10:48:54.942Z,24.52
2019-05-12T10:51:27.058Z,24.21
2019-05-12T10:54:07.746Z,24.41
2019-05-12T10:56:34.795Z,24.57
2019-05-12T10:59:07.002Z,24.56
2019-05-12T11:01:47.320Z,24.24
2019-05-12T11:04:14.323Z,24.20
2019-05-12T11:06:48.456Z,24.19
2019-05-12T11:09:21.326Z,24.21
2019-05-12T11:11:54.165Z,24.29
2019-05-12T11:14:30.471Z,24.54
2019-05-12T11:17:07.401Z,24.76
2019-05-12T11:19:40.748Z,24.93
2019-05-12T11:22:09.479Z,24.96
2019-05-12T11:24:41.346Z,25.19
2019-05-12T11:27:13.510Z,24.98
2019-05-12T11:29:49.301Z,25.29
2019-05-12T11:32:19.340Z,25.65
2019-05-12T11:34:53.613Z,25.88
2019-05-12T11:37:24.815Z,26.17
2019-05-12T11:39:56.993Z,26.29
2019-05-12T11:42:28.781Z,26.36
2019-05-12T11:45:00.801Z,26.07
2019-05-12T11:47:34.636Z,26.29
2019-05-12T11:50:09.760Z,26.75
2019-05-12T11:52:40.988Z,26.80
2019-05-12T11:55:13.463Z,27.22
2019-05-12T11:57:45.267Z,27.22
2019-05-12T12:00:20.226Z,27.23
2019-05-12T12:02:52.123Z,27.49
2019-05-12T12:05:24.102Z,27.17
2019-05-12T12:07:56.278Z,27.73
2019-05-12T12:10:29.379Z,27.39
2019-05-12T12:13:03.678Z,27.53
2019-05-12T12:15:35.954Z,27.97
2019-05-12T12:18:13.157Z,27.25
2019-05-12T12:20:44.086Z,26.58
2019-05-12T12:23:15.041Z,25.61
2019-05-12T12:25:48.474Z,25.22
2019-05-12T12:28:20.577Z,25.03
2019-05-12T12:30:56.788Z,24.80
2019-05-12T12:33:31.086Z,25.22
2019-05-12T12:36:00.866Z,25.89
2019-05-12T12:38:33.490Z,25.99
2019-05-12T12:41:05.393Z,27.01
2019-05-12T12:43:37.168Z,28.21
2019-05-12T12:46:21.213Z,27.90
2019-05-12T12:48:48.654Z,29.50
2019-05-12T12:51:20.633Z,31.04
2019-05-12T12:53:54.116Z,32.17
2019-05-12T12:56:30.076Z,31.03
2019-05-12T12:59:04.104Z,29.51
2019-05-12T13:01:35.777Z,29.07
2019-05-12T13:04:07.873Z,31.10
2019-05-12T13:06:39.716Z,30.79
2019-05-12T13:09:21.940Z,28.78
2019-05-12T13:11:45.063Z,27.57
2019-05-12T13:14:17.559Z,29.41
2019-05-12T13:16:54.605Z,30.24
2019-05-12T13:19:23.844Z,29.15
2019-05-12T13:21:55.883Z,28.68
2019-05-12T13:24:27.705Z,27.10
2019-05-12T13:26:59.695Z,26.15
2019-05-12T13:29:38.148Z,25.64
2019-05-12T13:32:05.777Z,25.08
2019-05-12T13:34:38.609Z,24.55
2019-05-12T13:37:15.564Z,24.43
2019-05-12T13:39:55.351Z,24.41
2019-05-12T13:42:18.276Z,24.32
2019-05-12T13:44:50.274Z,24.24
2019-05-12T13:47:22.310Z,24.12
2019-05-12T13:49:54.540Z,23.91
2019-05-12T13:52:30.275Z,24.03
2019-05-12T13:55:05.334Z,23.99
2019-05-12T13:57:34.171Z,23.83
2019-05-12T14:00:10.570Z,23.86
2019-05-12T14:02:43.977Z,23.80
2019-05-12T14:05:15.582Z,23.68
2019-05-12T14:07:49.976Z,23.40
2019-05-12T14:10:21.213Z,23.44
2019-05-12T14:12:54.361Z,23.28
2019-05-12T14:15:26.765Z,23.23
2019-05-12T14:17:59.465Z,23.11
2019-05-12T14:20:34.549Z,22.68
2019-05-12T14:23:06.795Z,21.42
2019-05-12T14:25:38.713Z,19.92
2019-05-12T14:28:13.647Z,19.10
2019-05-12T14:30:49.732Z,18.55
2019-05-12T14:33:18.816Z,18.42
2019-05-12T14:35:50.639Z,17.82
2019-05-12T14:38:27.507Z,17.65
2019-05-12T14:41:01.145Z,17.51
2019-05-12T14:43:30.068Z,17.28
2019-05-12T14:46:06.214Z,17.29
2019-05-12T14:48:40.169Z,17.07
2019-05-12T14:51:09.238Z,17.04
2019-05-12T14:53:41.285Z,16.73
2019-05-12T14:56:14.045Z,16.64
2019-05-12T14:58:50.296Z,16.71
2019-05-12T15:01:19.628Z,16.65
2019-05-12T15:03:53.512Z,16.46
2019-05-12T15:06:29.447Z,16.28
2019-05-12T15:08:58.825Z,16.23
2019-05-12T15:11:30.658Z,16.32
2019-05-12T15:14:03.157Z,16.33
2019-05-12T15:16:40.302Z,16.44
2019-05-12T15:19:09.879Z,16.32
2019-05-12T15:21:43.744Z,16.32
2019-05-12T15:24:18.996Z,16.24
2019-05-12T15:26:50.453Z,16.22
2019-05-12T15:29:23.757Z,16.26
2019-05-12T15:31:56.815Z,16.26
2019-05-12T15:37:03.983Z,16.29
2019-05-12T15:39:35.082Z,16.16
2019-05-12T15:42:07.223Z,16.29
2019-05-12T15:44:39.030Z,16.23
2019-05-12T15:47:11.191Z,16.24
2019-05-12T15:49:44.260Z,16.30
2019-05-12T15:52:16.470Z,16.26
2019-05-12T15:54:51.280Z,16.22
2019-05-12T15:57:24.438Z,16.13
2019-05-12T15:59:55.630Z,16.00
2019-05-12T16:02:27.613Z,16.01
2019-05-12T16:04:59.477Z,16.02
2019-05-12T16:07:35.678Z,16.00
2019-05-12T16:10:05.640Z,15.96
2019-05-12T16:12:37.866Z,15.88
2019-05-12T16:15:11.453Z,15.86
2019-05-12T16:17:44.266Z,15.77
2019-05-12T16:20:17.275Z,15.75
2019-05-12T16:22:49.260Z,15.76
2019-05-12T16:25:29.148Z,15.57
2019-05-12T16:27:54.886Z,15.60
2019-05-12T16:30:27.229Z,15.55
2019-05-12T16:32:59.468Z,15.51
2019-05-12T16:35:31.988Z,15.43
2019-05-12T16:38:13.865Z,15.30
2019-05-12T16:40:39.482Z,15.26
2019-05-12T16:43:14.432Z,15.17
2019-05-12T16:45:45.999Z,15.07
2019-05-12T16:48:29.219Z,15.05
2019-05-12T16:50:52.744Z,15.06
2019-05-12T16:53:27.934Z,15.06
2019-05-12T16:55:59.836Z,15.07
2019-05-12T16:58:35.214Z,15.00
2019-05-12T17:01:05.308Z,14.96
2019-05-12T17:03:37.435Z,14.95
2019-05-12T17:06:09.475Z,14.77
2019-05-12T17:08:43.690Z,14.65
2019-05-12T17:11:27.310Z,14.52
2019-05-12T17:13:56.858Z,14.33
2019-05-12T17:16:22.395Z,14.18
2019-05-12T17:18:54.355Z,14.10
2019-05-12T17:21:26.467Z,14.15
2019-05-12T17:23:58.490Z,14.07
2019-05-12T17:26:30.304Z,13.96
2019-05-12T17:29:02.318Z,13.83
2019-05-12T17:31:34.601Z,13.81
2019-05-12T17:34:09.235Z,13.75
2019-05-12T17:36:40.531Z,13.64
2019-05-12T17:39:13.853Z,13.57
2019-05-12T17:41:45.899Z,13.41
2019-05-12T17:44:18.059Z,13.29
2019-05-12T17:46:49.855Z,13.20
2019-05-12T17:49:25.450Z,13.14
2019-05-12T17:51:57.283Z,13.11
2019-05-12T17:54:29.378Z,12.93
2019-05-12T17:57:01.215Z,12.73
2019-05-12T17:59:33.412Z,12.62
2019-05-12T18:02:11.409Z,12.56
2019-05-12T18:04:39.689Z,12.40
2019-05-12T18:07:18.505Z,12.33
2019-05-12T18:09:50.539Z,12.39
2019-05-12T18:12:20.232Z,12.41
2019-05-12T18:14:53.318Z,12.41
2019-05-12T18:17:25.181Z,12.35
2019-05-12T18:20:00.837Z,12.37
2019-05-12T18:22:31.078Z,12.31
2019-05-12T18:25:04.297Z,12.25
2019-05-12T18:27:44.414Z,12.24
2019-05-12T18:30:11.015Z,12.04
2019-05-12T18:32:43.537Z,12.14
2019-05-12T18:35:15.951Z,12.18
2019-05-12T18:37:48.320Z,12.16
2019-05-12T18:40:20.588Z,12.13
2019-05-12T18:42:53.371Z,12.01
2019-05-12T18:45:26.074Z,12.00
2019-05-12T18:48:01.056Z,11.99
2019-05-12T18:50:34.278Z,12.01
2019-05-12T18:53:05.778Z,11.95
2019-05-12T18:55:40.307Z,11.96
2019-05-12T18:58:11.609Z,11.95
2019-05-12T19:00:43.798Z,11.95
2019-05-12T19:03:15.818Z,11.98
2019-05-12T19:05:47.918Z,11.93
2019-05-12T19:08:20.406Z,11.85
2019-05-12T19:10:53.086Z,11.88
2019-05-12T19:13:25.335Z,11.73
2019-05-12T19:16:02.501Z,11.75
2019-05-12T19:18:37.027Z,11.64
2019-05-12T19:21:10.361Z,11.53
2019-05-12T19:23:40.764Z,11.49
2019-05-12T19:26:13.606Z,11.49
2019-05-12T19:28:53.183Z,11.31
2019-05-12T19:31:19.492Z,11.22
2019-05-12T19:34:03.212Z,11.15
2019-05-12T19:36:24.917Z,10.97
2019-05-12T19:38:56.834Z,10.75
2019-05-12T19:41:30.878Z,10.72
2019-05-12T19:44:04.041Z,10.75
2019-05-12T19:46:39.866Z,10.72
2019-05-12T19:49:09.641Z,10.63
2019-05-12T19:51:43.796Z,10.62
2019-05-12T19:54:19.421Z,10.62
2019-05-12T19:56:49.733Z,10.53
2019-05-12T19:59:23.658Z,10.51
2019-05-12T20:01:55.520Z,10.49
2019-05-12T20:04:33.293Z,10.46
2019-05-12T20:07:03.563Z,10.52
2019-05-12T20:09:35.093Z,10.51
2019-05-12T20:12:15.151Z,10.51
2019-05-12T20:14:40.651Z,10.47
2019-05-12T20:17:12.579Z,10.49
2019-05-12T20:19:44.551Z,10.44
2019-05-12T20:22:16.669Z,10.39
2019-05-12T20:24:48.497Z,10.40
2019-05-12T20:27:21.924Z,10.20
2019-05-12T20:29:54.112Z,10.02
2019-05-12T20:32:26.193Z,10.05
2019-05-12T20:34:58.128Z,10.08
2019-05-12T20:37:30.001Z,10.13
2019-05-12T20:40:05.233Z,10.07
2019-05-12T20:42:43.997Z,10.07
2019-05-12T20:45:13.573Z,9.92
2019-05-12T20:47:47.690Z,9.90
2019-05-12T20:50:25.959Z,9.82
2019-05-12T20:52:58.736Z,9.80
2019-05-12T20:55:29.978Z,9.85
2019-05-12T20:58:01.435Z,9.83
2019-05-12T21:00:33.711Z,9.83
2019-05-12T21:03:05.890Z,9.82
2019-05-12T21:05:37.678Z,9.84
2019-05-12T21:08:12.024Z,9.69
2019-05-12T21:10:43.905Z,9.68
2019-05-12T21:13:20.484Z,9.73
2019-05-12T21:15:50.467Z,9.70
2019-05-12T21:18:23.709Z,9.58
2019-05-12T21:20:55.995Z,9.61
2019-05-12T21:23:28.127Z,9.50
2019-05-12T21:26:00.204Z,9.56
2019-05-12T21:28:37.035Z,9.62
2019-05-12T21:31:05.951Z,9.62
2019-05-12T21:33:41.650Z,9.59
2019-05-12T21:36:17.362Z,9.56
2019-05-12T21:38:45.138Z,9.47
2019-05-12T21:41:17.188Z,9.51
2019-05-12T21:43:49.254Z,9.42
2019-05-12T21:46:21.090Z,9.40
2019-05-12T21:48:53.172Z,9.11
2019-05-12T21:51:26.385Z,9.32
2019-05-12T21:53:58.444Z,9.33
2019-05-12T21:56:34.912Z,9.36
2019-05-12T21:59:03.895Z,9.45
2019-05-12T22:01:43.502Z,9.39
2019-05-12T22:04:10.618Z,9.46
2019-05-12T22:06:43.784Z,9.46
2019-05-12T22:09:17.561Z,9.45
2019-05-12T22:11:50.980Z,9.48
2019-05-12T22:14:24.077Z,9.47
2019-05-12T22:16:57.588Z,9.48
2019-05-12T22:19:31.208Z,9.46
2019-05-12T22:22:04.324Z,9.43
2019-05-12T22:24:38.730Z,9.34
2019-05-12T22:27:13.959Z,9.33
2019-05-12T22:29:43.890Z,9.33
2019-05-12T22:32:18.987Z,9.36
2019-05-12T22:34:49.544Z,9.39
2019-05-12T22:37:23.849Z,9.37
2019-05-12T22:39:56.222Z,9.32
2019-05-12T22:42:28.257Z,9.25
2019-05-12T22:45:01.452Z,9.24
2019-05-12T22:47:33.590Z,9.28
2019-05-12T22:50:05.570Z,9.29
2019-05-12T22:52:38.992Z,9.31
2019-05-12T22:55:13.992Z,9.22
2019-05-12T22:57:45.663Z,9.22
2019-05-12T23:00:21.683Z,9.15
2019-05-12T23:02:53.781Z,9.22
2019-05-12T23:05:25.612Z,9.15
2019-05-12T23:08:00.202Z,9.11
2019-05-12T23:10:30.957Z,9.07
2019-05-12T23:13:05.046Z,9.04
2019-05-12T23:15:38.846Z,9.16
2019-05-12T23:18:10.285Z,9.13
2019-05-12T23:20:43.911Z,9.17
2019-05-12T23:23:18.869Z,9.20
2019-05-12T23:25:54.318Z,9.17
2019-05-12T23:28:23.537Z,9.15
2019-05-12T23:30:55.769Z,9.14
2019-05-12T23:33:31.775Z,9.16
2019-05-12T23:36:01.101Z,9.15
2019-05-12T23:38:33.878Z,9.15
2019-05-12T23:41:05.958Z,9.11
2019-05-12T23:43:37.864Z,9.09
2019-05-12T23:46:09.999Z,9.09
2019-05-12T23:48:43.882Z,9.10
2019-05-12T23:51:15.287Z,9.09
2019-05-12T23:53:47.013Z,9.12
2019-05-12T23:56:18.883Z,9.08
2019-05-12T23:58:50.612Z,8.99
